Time;durP1;ratioP1;P1;durP2;ratioP2;P2;SDS_P1;SDS_P2;PMS_P1;PMS_P2;Temp;Humidity;BMP_temperature;BMP_pressure;BME280_temperature;BME280_humidity;BME280_pressure;Samples;Min_cycle;Max_cycle;Signal;HPM_P1;HPM_P2
2023/10/28 00:02:23;;;;;;;27.63;16.10;;;9.30;99.90;;;;;;5036064;28;20045;-69
2023/10/28 00:04:49;;;;;;;24.80;15.10;;;9.20;99.90;;;;;;5053054;28;20122;-68
2023/10/28 00:07:15;;;;;;;29.90;14.70;;;9.20;99.90;;;;;;5033284;28;20080;-69
2023/10/28 00:09:41;;;;;;;25.23;14.27;;;9.30;99.90;;;;;;5016314;28;20112;-68
2023/10/28 00:12:12;;;;;;;28.38;13.85;;;9.50;99.90;;;;;;5032841;28;20049;-69
2023/10/28 00:14:39;;;;;;;25.63;15.32;;;9.20;99.90;;;;;;5033090;28;20080;-69
2023/10/28 00:17:05;;;;;;;26.83;14.02;;;9.20;99.90;;;;;;5032859;28;20045;-68
2023/10/28 00:19:32;;;;;;;26.08;13.85;;;9.40;99.90;;;;;;5036205;28;20052;-69
2023/10/28 00:21:58;;;;;;;23.42;13.68;;;9.10;99.90;;;;;;5052721;28;20476;-69
2023/10/28 00:24:25;;;;;;;24.23;13.75;;;9.40;99.90;;;;;;5053028;28;20202;-69
2023/10/28 00:26:51;;;;;;;28.48;13.75;;;9.10;99.90;;;;;;5036704;28;20452;-68
2023/10/28 00:29:17;;;;;;;23.30;12.70;;;9.40;99.90;;;;;;5032342;28;20524;-68
2023/10/28 00:31:44;;;;;;;19.73;11.40;;;9.10;99.90;;;;;;5033009;28;20381;-68
2023/10/28 00:34:10;;;;;;;20.88;11.60;;;9.20;99.90;;;;;;5032601;28;20056;-69
2023/10/28 00:36:36;;;;;;;22.50;12.68;;;9.30;99.90;;;;;;5033211;28;20053;-68
2023/10/28 00:39:03;;;;;;;25.40;12.40;;;9.10;99.90;;;;;;5032200;28;20108;-69
2023/10/28 00:41:32;;;;;;;19.83;11.65;;;9.30;99.90;;;;;;5016120;28;20064;-68
2023/10/28 00:43:58;;;;;;;19.60;11.65;;;9.40;99.90;;;;;;5034727;28;20063;-69
2023/10/28 00:46:24;;;;;;;19.00;10.63;;;9.10;99.90;;;;;;5063236;28;20221;-69
2023/10/28 00:48:53;;;;;;;22.10;11.88;;;9.40;99.90;;;;;;5075577;28;20066;-69
2023/10/28 00:51:19;;;;;;;25.25;12.75;;;9.20;99.90;;;;;;5078614;28;20044;-68
2023/10/28 00:53:46;;;;;;;23.15;12.30;;;9.40;99.90;;;;;;5079167;28;20052;-69
2023/10/28 00:56:12;;;;;;;17.42;11.15;;;9.20;99.90;;;;;;5068081;28;20052;-69
2023/10/28 00:58:40;;;;;;;18.90;11.13;;;9.20;99.90;;;;;;5041611;28;20048;-69
2023/10/28 01:01:10;;;;;;;20.25;12.23;;;9.30;99.90;;;;;;5058780;28;20044;-70
2023/10/28 01:03:36;;;;;;;20.85;11.13;;;9.30;99.90;;;;;;5059192;28;20040;-69
2023/10/28 01:06:03;;;;;;;19.60;11.48;;;9.20;99.90;;;;;;5042562;28;20067;-69
2023/10/28 01:08:29;;;;;;;19.73;11.23;;;9.30;99.90;;;;;;5042242;28;20376;-68
2023/10/28 01:11:00;;;;;;;21.27;11.07;;;9.30;99.90;;;;;;5058450;28;20052;-68
2023/10/28 01:13:27;;;;;;;22.88;10.70;;;9.20;99.90;;;;;;5058565;28;20056;-69
2023/10/28 01:15:53;;;;;;;19.50;11.68;;;9.00;99.90;;;;;;5058529;28;20147;-68
2023/10/28 01:18:20;;;;;;;19.33;12.02;;;9.00;99.90;;;;;;5058200;28;20063;-69
2023/10/28 01:20:47;;;;;;;16.30;10.40;;;9.00;99.90;;;;;;5041694;28;20045;-68
2023/10/28 01:23:13;;;;;;;19.25;10.57;;;9.00;99.90;;;;;;5042189;28;20051;-68
2023/10/28 01:25:39;;;;;;;18.23;10.15;;;9.20;99.90;;;;;;5063061;28;20043;-68
2023/10/28 01:28:07;;;;;;;18.30;11.02;;;9.10;99.90;;;;;;5061634;28;20055;-69
2023/10/28 01:30:34;;;;;;;19.17;11.07;;;9.30;99.90;;;;;;5061778;28;20060;-69
2023/10/28 01:33:02;;;;;;;20.40;11.50;;;9.00;99.90;;;;;;5078515;28;20144;-69
2023/10/28 01:35:29;;;;;;;20.10;10.52;;;9.10;99.90;;;;;;5057503;28;20404;-68
2023/10/28 01:37:55;;;;;;;20.42;12.00;;;9.30;99.90;;;;;;5058004;28;20056;-68
2023/10/28 01:40:21;;;;;;;18.02;10.90;;;9.20;99.90;;;;;;5058131;28;20048;-69
2023/10/28 01:42:48;;;;;;;18.48;10.57;;;8.90;99.90;;;;;;5058566;28;20048;-69
2023/10/28 01:45:18;;;;;;;18.02;10.15;;;9.10;99.90;;;;;;5060036;28;20056;-68
2023/10/28 01:47:44;;;;;;;18.58;9.40;;;9.10;99.90;;;;;;5078269;28;20048;-69
2023/10/28 01:50:11;;;;;;;18.42;10.27;;;9.20;99.90;;;;;;5061618;28;20047;-68
2023/10/28 01:52:39;;;;;;;16.67;9.85;;;8.90;99.90;;;;;;5078791;28;20491;-69
2023/10/28 01:55:06;;;;;;;16.10;10.30;;;8.90;99.90;;;;;;5077853;28;20148;-69
2023/10/28 01:57:32;;;;;;;17.35;9.38;;;9.10;99.90;;;;;;5077987;28;20048;-69
2023/10/28 02:00:00;;;;;;;15.75;9.27;;;9.00;99.90;;;;;;5075809;28;20058;-68
2023/10/28 02:02:26;;;;;;;16.38;9.40;;;9.10;99.90;;;;;;5058302;28;20097;-68
2023/10/28 02:04:52;;;;;;;13.32;9.18;;;9.00;99.90;;;;;;5058558;28;20044;-68
2023/10/28 02:07:19;;;;;;;14.70;9.60;;;9.00;99.90;;;;;;5074375;28;20459;-69
2023/10/28 02:09:45;;;;;;;14.30;10.02;;;8.70;99.90;;;;;;5074801;28;20364;-68
2023/10/28 02:12:12;;;;;;;15.05;8.85;;;9.00;99.90;;;;;;5075302;28;20081;-69
2023/10/28 02:14:40;;;;;;;13.07;8.55;;;8.90;99.90;;;;;;5108839;28;20093;-69
2023/10/28 02:17:07;;;;;;;13.57;8.55;;;8.90;99.90;;;;;;5074676;28;20048;-69
2023/10/28 02:19:33;;;;;;;14.93;8.63;;;8.90;99.90;;;;;;5074806;28;20044;-69
2023/10/28 02:22:00;;;;;;;16.38;9.23;;;8.70;99.90;;;;;;5075343;28;20040;-69
2023/10/28 02:24:26;;;;;;;14.70;9.02;;;8.90;99.90;;;;;;5074996;28;20055;-68
2023/10/28 02:26:52;;;;;;;14.93;9.00;;;8.60;99.90;;;;;;5057608;28;20062;-68
2023/10/28 02:29:19;;;;;;;14.25;9.07;;;8.90;99.90;;;;;;5074255;28;20055;-69
2023/10/28 02:31:46;;;;;;;16.45;9.63;;;8.80;99.90;;;;;;5074753;28;20048;-69
2023/10/28 02:34:13;;;;;;;14.70;8.95;;;8.90;99.90;;;;;;5074212;28;20055;-69
2023/10/28 02:36:39;;;;;;;17.75;8.57;;;8.60;99.90;;;;;;5074356;28;20047;-68
2023/10/28 02:39:06;;;;;;;21.95;9.20;;;8.70;99.90;;;;;;5108154;28;20051;-69
2023/10/28 02:41:32;;;;;;;13.10;7.90;;;8.80;99.90;;;;;;5074622;28;20456;-69
2023/10/28 02:43:58;;;;;;;16.42;8.80;;;8.80;99.90;;;;;;5057624;28;20455;-69
2023/10/28 02:46:25;;;;;;;12.90;8.88;;;8.80;99.90;;;;;;5100352;28;20052;-70
2023/10/28 02:48:51;;;;;;;13.50;8.98;;;9.00;99.90;;;;;;5073699;28;20059;-68
2023/10/28 02:51:18;;;;;;;16.02;9.25;;;8.80;99.90;;;;;;5073844;28;20048;-68
2023/10/28 02:53:44;;;;;;;18.10;10.13;;;9.00;99.90;;;;;;5074240;28;20059;-69
2023/10/28 02:56:10;;;;;;;14.13;9.68;;;8.80;99.90;;;;;;5073596;28;20366;-69
2023/10/28 02:58:38;;;;;;;15.93;9.93;;;8.90;99.90;;;;;;5073809;28;20052;-69
2023/10/28 03:01:08;;;;;;;16.85;10.07;;;8.90;99.90;;;;;;5074196;28;20044;-69
2023/10/28 03:03:34;;;;;;;12.98;8.88;;;9.20;99.90;;;;;;5073806;28;20368;-68
2023/10/28 03:06:01;;;;;;;17.42;9.23;;;9.10;99.90;;;;;;5103848;28;20048;-68
2023/10/28 03:08:27;;;;;;;17.13;9.88;;;9.30;99.90;;;;;;5073232;28;20109;-68
2023/10/28 03:10:53;;;;;;;18.33;10.30;;;9.30;99.90;;;;;;5073536;28;20117;-68
2023/10/28 03:13:21;;;;;;;16.58;9.02;;;9.10;99.90;;;;;;5073818;28;20052;-68
2023/10/28 03:15:47;;;;;;;16.67;8.95;;;9.20;99.90;;;;;;5073287;28;20452;-68
2023/10/28 03:18:13;;;;;;;19.42;9.88;;;9.00;99.90;;;;;;5073420;28;20040;-69
2023/10/28 03:20:40;;;;;;;14.55;8.40;;;9.20;99.90;;;;;;5073283;28;20467;-69
2023/10/28 03:23:06;;;;;;;13.75;8.98;;;9.30;99.90;;;;;;5073785;28;20055;-69
2023/10/28 03:25:33;;;;;;;15.45;8.85;;;9.30;99.90;;;;;;5106873;28;20685;-69
2023/10/28 03:28:04;;;;;;;16.65;9.05;;;9.00;99.90;;;;;;5056785;28;20063;-69
2023/10/28 03:30:31;;;;;;;18.48;9.45;;;9.10;99.90;;;;;;5056940;28;20117;-68
2023/10/28 03:32:58;;;;;;;13.82;9.13;;;9.30;99.90;;;;;;5073265;28;20056;-69
2023/10/28 03:35:25;;;;;;;17.50;9.05;;;9.30;99.90;;;;;;5056256;28;20062;-69
2023/10/28 03:37:52;;;;;;;16.00;8.77;;;9.40;99.90;;;;;;5072771;28;20043;-68
2023/10/28 03:40:18;;;;;;;16.10;9.27;;;9.40;99.90;;;;;;5073411;28;20062;-69
2023/10/28 03:42:45;;;;;;;23.40;10.25;;;9.40;99.90;;;;;;5073496;28;20463;-69
2023/10/28 03:45:11;;;;;;;17.77;9.13;;;9.20;99.90;;;;;;5056040;28;20059;-68
2023/10/28 03:47:40;;;;;;;19.80;10.43;;;9.20;99.90;;;;;;5052767;28;20055;-69
2023/10/28 03:50:06;;;;;;;18.25;10.10;;;9.20;99.90;;;;;;5052930;28;20365;-69
2023/10/28 03:52:33;;;;;;;15.30;9.07;;;9.50;99.90;;;;;;5052737;28;20103;-69
2023/10/28 03:54:59;;;;;;;15.98;9.23;;;9.20;99.90;;;;;;5052873;28;20052;-69
2023/10/28 03:57:25;;;;;;;15.95;9.07;;;9.30;99.90;;;;;;5054431;28;20475;-69
2023/10/28 03:59:51;;;;;;;17.35;9.43;;;9.50;99.90;;;;;;5056503;28;20052;-69
2023/10/28 04:02:18;;;;;;;17.08;8.75;;;9.10;99.90;;;;;;5107140;28;20062;-69
2023/10/28 04:04:45;;;;;;;17.48;9.00;;;9.30;99.90;;;;;;5089918;28;20044;-68
2023/10/28 04:07:12;;;;;;;14.48;9.27;;;9.50;99.90;;;;;;5071761;28;20391;-68
2023/10/28 04:09:38;;;;;;;18.13;9.25;;;9.30;99.90;;;;;;5072747;28;20048;-69
2023/10/28 04:12:05;;;;;;;17.30;10.27;;;9.30;99.90;;;;;;5072492;28;20044;-68
2023/10/28 04:14:35;;;;;;;16.70;8.68;;;9.50;99.90;;;;;;5072500;28;20481;-68
2023/10/28 04:17:05;;;;;;;16.85;9.38;;;9.40;99.90;;;;;;5071274;28;20448;-69
2023/10/28 04:19:32;;;;;;;16.75;9.25;;;9.50;99.90;;;;;;5072674;28;20052;-69
2023/10/28 04:21:58;;;;;;;16.23;9.57;;;9.30;99.90;;;;;;5105787;28;20056;-69
2023/10/28 04:24:25;;;;;;;15.43;8.95;;;9.40;99.90;;;;;;5072110;28;20048;-69
2023/10/28 04:26:52;;;;;;;18.85;9.82;;;9.40;99.90;;;;;;5071932;28;20355;-68
2023/10/28 04:29:19;;;;;;;22.38;10.85;;;9.70;99.90;;;;;;5055945;28;20052;-69
2023/10/28 04:31:45;;;;;;;19.65;10.70;;;9.50;99.90;;;;;;5072326;28;20062;-69
2023/10/28 04:34:11;;;;;;;14.68;9.10;;;9.80;99.90;;;;;;5072374;28;20406;-68
2023/10/28 04:36:37;;;;;;;18.05;10.07;;;9.80;99.90;;;;;;5071326;28;20055;-69
2023/10/28 04:39:05;;;;;;;14.90;9.60;;;9.80;99.90;;;;;;5072350;28;20062;-69
2023/10/28 04:41:31;;;;;;;16.52;9.77;;;9.80;99.90;;;;;;5072681;28;20067;-69
2023/10/28 04:43:57;;;;;;;18.85;9.88;;;9.60;99.90;;;;;;5072320;28;20121;-69
2023/10/28 04:46:23;;;;;;;17.92;9.35;;;9.70;99.90;;;;;;5099550;28;20373;-68
2023/10/28 04:48:50;;;;;;;18.45;9.30;;;9.60;99.90;;;;;;5071485;28;20052;-69
2023/10/28 04:51:16;;;;;;;19.85;10.98;;;9.60;99.90;;;;;;5071830;28;20071;-69
2023/10/28 04:53:44;;;;;;;21.40;9.55;;;9.80;99.90;;;;;;5072319;28;20052;-69
2023/10/28 04:56:11;;;;;;;17.00;9.65;;;9.60;99.90;;;;;;5071834;28;20055;-69
2023/10/28 04:58:38;;;;;;;15.95;9.02;;;9.60;99.90;;;;;;5071954;28;20392;-69
2023/10/28 05:01:04;;;;;;;16.27;10.52;;;9.90;99.90;;;;;;5072069;28;20040;-68
2023/10/28 05:03:30;;;;;;;16.15;9.00;;;10.00;99.90;;;;;;5072595;28;20044;-68
2023/10/28 05:05:57;;;;;;;15.05;8.90;;;10.00;99.90;;;;;;5103039;28;20044;-69
2023/10/28 05:08:23;;;;;;;21.88;10.23;;;9.80;99.90;;;;;;5071935;28;20452;-68
2023/10/28 05:10:49;;;;;;;14.73;8.45;;;10.00;99.90;;;;;;5071968;28;20425;-69
2023/10/28 05:13:16;;;;;;;16.02;9.30;;;9.80;99.90;;;;;;5072086;28;20064;-68
2023/10/28 05:15:42;;;;;;;17.15;9.18;;;9.80;99.90;;;;;;5071824;28;20036;-69
2023/10/28 05:18:08;;;;;;;15.38;10.18;;;10.10;99.90;;;;;;5054962;28;20048;-69
2023/10/28 05:20:34;;;;;;;13.88;9.45;;;10.00;99.90;;;;;;5055000;28;20044;-69
2023/10/28 05:23:01;;;;;;;12.30;10.32;;;9.80;99.90;;;;;;5072083;28;20086;-69
2023/10/28 05:25:28;;;;;;;16.38;8.80;;;9.80;99.90;;;;;;5071422;28;20376;-69
2023/10/28 05:27:54;;;;;;;18.90;9.27;;;10.10;99.90;;;;;;5071602;28;20140;-69
2023/10/28 05:30:20;;;;;;;16.63;10.50;;;10.00;99.90;;;;;;5071706;28;20501;-69
2023/10/28 05:32:47;;;;;;;18.55;9.52;;;10.00;99.90;;;;;;5055259;28;20056;-69
2023/10/28 05:35:13;;;;;;;16.17;9.75;;;9.70;99.90;;;;;;5073224;28;20051;-68
2023/10/28 05:37:39;;;;;;;16.95;9.00;;;9.90;99.90;;;;;;5055540;28;20052;-68
2023/10/28 05:40:10;;;;;;;15.05;8.88;;;9.90;99.90;;;;;;5055658;28;20195;-68
2023/10/28 05:42:37;;;;;;;16.35;9.23;;;9.80;99.90;;;;;;5055789;28;20052;-68
2023/10/28 05:45:04;;;;;;;15.02;8.98;;;10.00;99.90;;;;;;5055199;28;20378;-69
2023/10/28 05:47:31;;;;;;;14.15;7.60;;;10.00;99.90;;;;;;5056133;28;20051;-68
2023/10/28 05:49:57;;;;;;;13.20;7.85;;;9.60;99.90;;;;;;5074962;28;20286;-68
2023/10/28 05:52:23;;;;;;;14.00;8.30;;;9.60;99.90;;;;;;5074909;28;20048;-68
2023/10/28 05:54:49;;;;;;;11.90;7.72;;;9.80;99.90;;;;;;5075458;28;20044;-69
2023/10/28 05:57:16;;;;;;;14.65;7.43;;;10.00;99.90;;;;;;5057678;28;20469;-69
2023/10/28 05:59:42;;;;;;;14.95;7.75;;;9.70;99.90;;;;;;5055176;28;20099;-69
2023/10/28 06:02:08;;;;;;;14.48;7.53;;;9.90;99.90;;;;;;5038700;28;20399;-69
2023/10/28 06:04:34;;;;;;;13.27;7.78;;;9.70;99.90;;;;;;5055172;28;20052;-69
2023/10/28 06:07:01;;;;;;;10.15;7.30;;;10.00;99.90;;;;;;5038015;28;20056;-69
2023/10/28 06:09:27;;;;;;;12.00;8.07;;;9.70;99.90;;;;;;5054967;28;20454;-68
2023/10/28 06:11:54;;;;;;;11.85;6.53;;;9.80;99.90;;;;;;5054909;28;20056;-69
2023/10/28 06:14:21;;;;;;;13.57;7.10;;;9.80;99.90;;;;;;5055000;28;20048;-69
2023/10/28 06:16:49;;;;;;;11.82;7.10;;;9.70;99.90;;;;;;5049646;28;20076;-68
2023/10/28 06:19:15;;;;;;;11.55;7.38;;;9.90;99.90;;;;;;5074930;28;20044;-68
2023/10/28 06:21:42;;;;;;;13.50;6.78;;;9.90;99.90;;;;;;5057921;28;20048;-69
2023/10/28 06:24:08;;;;;;;13.13;7.53;;;9.70;99.90;;;;;;5073153;28;20040;-68
2023/10/28 06:26:34;;;;;;;13.50;6.97;;;9.90;99.90;;;;;;5072818;28;20055;-69
2023/10/28 06:29:01;;;;;;;11.40;6.50;;;9.60;99.90;;;;;;5055880;28;20051;-69
2023/10/28 06:31:27;;;;;;;9.27;7.57;;;9.90;99.90;;;;;;5073187;28;20043;-68
2023/10/28 06:33:53;;;;;;;11.10;5.88;;;9.60;99.90;;;;;;5070970;28;20052;-68
2023/10/28 06:36:19;;;;;;;8.43;5.70;;;9.70;99.90;;;;;;5071002;28;20052;-68
2023/10/28 06:38:46;;;;;;;9.48;6.20;;;9.60;99.90;;;;;;5073298;28;20348;-68
2023/10/28 06:41:12;;;;;;;9.77;6.88;;;9.50;99.90;;;;;;5073097;28;20071;-69
2023/10/28 06:43:38;;;;;;;9.55;6.13;;;9.90;99.90;;;;;;5073387;28;20047;-68
2023/10/28 06:46:04;;;;;;;11.00;6.43;;;9.60;99.90;;;;;;5056109;28;20354;-69
2023/10/28 06:48:33;;;;;;;10.85;6.93;;;9.90;99.90;;;;;;5072152;28;20474;-68
2023/10/28 06:51:00;;;;;;;12.75;8.38;;;9.90;99.90;;;;;;5073245;28;20176;-68
2023/10/28 06:53:26;;;;;;;9.80;6.60;;;9.70;99.90;;;;;;5073427;28;20064;-69
2023/10/28 06:55:52;;;;;;;9.82;6.68;;;9.90;99.90;;;;;;5072917;28;20405;-68
2023/10/28 06:58:18;;;;;;;8.65;6.22;;;9.60;99.90;;;;;;5073237;28;20105;-68
2023/10/28 07:00:44;;;;;;;7.85;6.32;;;9.60;99.90;;;;;;5073444;28;20044;-69
2023/10/28 07:03:14;;;;;;;9.07;6.30;;;9.80;99.90;;;;;;5073278;28;20040;-68
2023/10/28 07:05:40;;;;;;;10.40;5.70;;;9.60;99.90;;;;;;5072744;28;20055;-69
2023/10/28 07:08:07;;;;;;;9.55;5.40;;;9.80;99.90;;;;;;5054331;28;20051;-68
2023/10/28 07:10:33;;;;;;;9.75;5.85;;;9.50;99.90;;;;;;5073582;28;20151;-68
2023/10/28 07:12:59;;;;;;;10.65;6.10;;;9.70;99.90;;;;;;5073433;28;20516;-68
2023/10/28 07:15:26;;;;;;;10.88;5.82;;;9.80;99.90;;;;;;5056263;28;20110;-68
2023/10/28 07:17:52;;;;;;;9.38;7.03;;;9.60;99.90;;;;;;5069700;28;20051;-68
2023/10/28 07:20:19;;;;;;;8.25;5.80;;;9.70;99.90;;;;;;5073124;28;20036;-68
2023/10/28 07:22:46;;;;;;;7.95;5.30;;;9.80;99.90;;;;;;5054083;28;20040;-69
2023/10/28 07:25:14;;;;;;;9.80;5.53;;;9.70;99.90;;;;;;5073528;28;20420;-69
2023/10/28 07:27:40;;;;;;;7.45;5.97;;;9.70;99.90;;;;;;5072156;28;20408;-69
2023/10/28 07:30:10;;;;;;;10.35;5.53;;;10.00;99.90;;;;;;5056424;28;20052;-68
2023/10/28 07:32:36;;;;;;;9.25;5.68;;;10.00;99.90;;;;;;5072280;28;20063;-69
2023/10/28 07:35:05;;;;;;;8.75;5.50;;;10.10;99.90;;;;;;5072579;28;20109;-69
2023/10/28 07:37:31;;;;;;;9.27;5.82;;;10.10;99.90;;;;;;5068490;28;20044;-69
2023/10/28 07:39:57;;;;;;;9.32;5.85;;;9.90;99.90;;;;;;5070072;28;20106;-69
2023/10/28 07:42:24;;;;;;;9.57;5.97;;;10.00;99.90;;;;;;5070039;28;20040;-69
2023/10/28 07:44:51;;;;;;;9.38;5.90;;;10.20;99.90;;;;;;5072375;28;20388;-68
2023/10/28 07:47:18;;;;;;;8.32;5.30;;;10.20;99.90;;;;;;5071030;28;20522;-67
2023/10/28 07:49:45;;;;;;;9.43;5.57;;;9.90;99.90;;;;;;5051522;28;20055;-69
2023/10/28 07:52:11;;;;;;;8.13;5.10;;;10.20;99.90;;;;;;5072010;28;20044;-68
2023/10/28 07:54:38;;;;;;;10.60;5.50;;;10.00;99.90;;;;;;5072532;28;20056;-68
2023/10/28 07:57:04;;;;;;;7.63;4.88;;;10.20;99.90;;;;;;5068466;28;20048;-67
2023/10/28 07:59:31;;;;;;;7.07;4.72;;;10.30;99.90;;;;;;5037585;28;20055;-68
2023/10/28 08:01:58;;;;;;;7.32;4.53;;;10.30;99.90;;;;;;5072314;28;20445;-68
2023/10/28 08:04:27;;;;;;;7.60;4.80;;;10.10;99.90;;;;;;5073002;28;20047;-68
2023/10/28 08:06:53;;;;;;;6.90;4.38;;;10.20;99.90;;;;;;5071712;28;20214;-67
2023/10/28 08:09:19;;;;;;;8.35;4.63;;;10.20;99.90;;;;;;5106434;28;20383;-69
2023/10/28 08:11:46;;;;;;;7.93;4.63;;;10.20;99.90;;;;;;5054898;28;20048;-67
2023/10/28 08:14:13;;;;;;;6.43;4.68;;;10.40;99.90;;;;;;5055744;28;20091;-68
2023/10/28 08:16:40;;;;;;;8.05;4.70;;;10.50;99.90;;;;;;5045334;28;20322;-69
2023/10/28 08:19:08;;;;;;;8.07;4.35;;;10.30;99.90;;;;;;5062751;28;20059;-68
2023/10/28 08:21:34;;;;;;;7.95;4.85;;;10.60;99.90;;;;;;5072457;28;20059;-67
2023/10/28 08:24:00;;;;;;;7.82;4.68;;;10.60;99.90;;;;;;5071736;28;20048;-69
2023/10/28 08:26:27;;;;;;;6.82;4.57;;;10.70;99.90;;;;;;5070540;28;20388;-68
2023/10/28 08:28:53;;;;;;;6.75;4.85;;;10.70;99.90;;;;;;5104325;28;20429;-67
2023/10/28 08:31:20;;;;;;;9.52;4.47;;;10.70;99.90;;;;;;5071839;28;20092;-67
2023/10/28 08:33:50;;;;;;;7.38;4.53;;;10.50;99.90;;;;;;5071875;28;20400;-68
2023/10/28 08:36:17;;;;;;;8.98;4.93;;;10.60;99.90;;;;;;5065004;28;20049;-67
2023/10/28 08:38:44;;;;;;;8.05;4.97;;;10.80;99.90;;;;;;5052331;28;20499;-67
2023/10/28 08:41:11;;;;;;;7.70;4.38;;;10.70;99.90;;;;;;5052150;28;20102;-67
2023/10/28 08:43:38;;;;;;;9.98;4.55;;;10.70;99.90;;;;;;5060900;28;20062;-68
2023/10/28 08:46:05;;;;;;;7.75;4.47;;;10.90;99.90;;;;;;5066632;28;20044;-67
2023/10/28 08:48:33;;;;;;;6.93;4.30;;;10.80;99.90;;;;;;5053272;28;20049;-69
2023/10/28 08:51:00;;;;;;;6.05;4.55;;;10.90;99.90;;;;;;5068483;28;20063;-68
2023/10/28 08:53:28;;;;;;;7.55;4.93;;;11.00;99.90;;;;;;5052376;28;20382;-69
2023/10/28 08:55:57;;;;;;;8.43;4.90;;;11.30;99.90;;;;;;5055645;28;20044;-68
2023/10/28 08:58:23;;;;;;;9.15;4.65;;;11.20;99.90;;;;;;5070650;28;20044;-69
2023/10/28 09:00:54;;;;;;;6.57;4.10;;;11.20;99.90;;;;;;5071294;28;20043;-68
2023/10/28 09:03:22;;;;;;;6.55;3.70;;;11.40;99.90;;;;;;5071338;28;20051;-68
2023/10/28 09:05:52;;;;;;;9.60;4.30;;;11.50;99.90;;;;;;5070537;28;20055;-68
2023/10/28 09:08:19;;;;;;;6.88;4.18;;;11.50;99.90;;;;;;5069751;28;20054;-68
2023/10/28 09:10:46;;;;;;;6.90;3.63;;;11.40;99.90;;;;;;5054159;28;20052;-68
2023/10/28 09:13:13;;;;;;;7.18;3.90;;;11.40;99.90;;;;;;5056176;28;20052;-68
2023/10/28 09:15:40;;;;;;;9.98;4.40;;;11.70;99.90;;;;;;5069209;28;20056;-68
2023/10/28 09:18:08;;;;;;;7.63;4.57;;;11.70;99.90;;;;;;5074779;28;20074;-68
2023/10/28 09:20:37;;;;;;;7.35;4.15;;;11.70;99.90;;;;;;5075977;28;20040;-68
2023/10/28 09:23:04;;;;;;;5.28;3.60;;;11.60;99.90;;;;;;5075704;28;20106;-68
2023/10/28 09:25:30;;;;;;;6.40;4.20;;;11.60;99.90;;;;;;5071754;28;20315;-68
2023/10/28 09:27:57;;;;;;;6.80;4.50;;;11.80;99.90;;;;;;5056506;28;20377;-67
2023/10/28 09:30:23;;;;;;;7.85;4.07;;;11.80;99.90;;;;;;5072204;28;20048;-68
2023/10/28 09:32:53;;;;;;;6.75;3.90;;;11.60;99.90;;;;;;5069108;28;20484;-68
2023/10/28 09:35:20;;;;;;;5.95;3.40;;;11.80;99.90;;;;;;5039696;28;20049;-67
2023/10/28 09:37:47;;;;;;;8.00;3.55;;;11.80;99.90;;;;;;5072901;28;20051;-68
2023/10/28 09:40:14;;;;;;;7.40;4.30;;;11.70;99.90;;;;;;5074573;28;20044;-69
2023/10/28 09:42:43;;;;;;;9.77;4.88;;;11.90;99.90;;;;;;5071754;28;20050;-68
2023/10/28 09:45:10;;;;;;;8.27;3.85;;;11.70;99.90;;;;;;5074482;28;20052;-68
2023/10/28 09:47:49;;;;;;;8.43;3.80;;;11.80;99.90;;;;;;5055265;28;20052;-67
2023/10/28 09:50:20;;;;;;;5.80;3.80;;;11.90;99.90;;;;;;5073830;28;20055;-67
2023/10/28 09:52:48;;;;;;;8.02;4.10;;;11.90;99.90;;;;;;5058245;28;20460;-68
2023/10/28 09:55:15;;;;;;;6.80;3.55;;;11.80;99.90;;;;;;5071697;28;20079;-68
2023/10/28 09:57:45;;;;;;;5.32;3.50;;;11.80;99.90;;;;;;5054350;28;20398;-67
2023/10/28 10:00:18;;;;;;;7.70;4.25;;;12.10;99.90;;;;;;5053680;28;20052;-69
2023/10/28 10:02:54;;;;;;;9.02;4.43;;;12.10;99.90;;;;;;5054827;28;20041;-69
2023/10/28 10:05:39;;;;;;;6.35;3.95;;;12.00;99.90;;;;;;5055094;28;20056;-69
2023/10/28 10:08:16;;;;;;;7.20;3.53;;;12.10;99.90;;;;;;5054592;28;20083;-68
2023/10/28 10:10:47;;;;;;;5.82;3.53;;;12.30;99.90;;;;;;5054650;28;20319;-68
2023/10/28 10:13:15;;;;;;;5.85;4.10;;;12.40;99.90;;;;;;5054747;28;20052;-67
2023/10/28 10:15:51;;;;;;;6.93;4.00;;;12.50;99.90;;;;;;5056277;28;20048;-69
2023/10/28 10:18:37;;;;;;;7.47;4.38;;;12.60;99.90;;;;;;5057710;28;20048;-68
2023/10/28 10:21:10;;;;;;;5.13;3.63;;;12.60;99.90;;;;;;5057364;28;20064;-68
2023/10/28 10:23:43;;;;;;;5.93;3.67;;;12.60;99.90;;;;;;5074997;28;20062;-67
2023/10/28 10:26:52;;;;;;;6.93;3.28;;;12.60;99.90;;;;;;5074305;28;20047;-70
2023/10/28 10:29:18;;;;;;;5.53;3.22;;;12.80;99.90;;;;;;5060087;28;20135;-68
2023/10/28 10:31:51;;;;;;;5.80;3.45;;;12.80;99.90;;;;;;5074931;28;20379;-67
2023/10/28 10:34:39;;;;;;;7.22;3.65;;;12.80;99.90;;;;;;5073771;28;20044;-68
2023/10/28 10:37:06;;;;;;;9.32;4.13;;;12.90;99.90;;;;;;5072343;28;20258;-68
2023/10/28 10:39:48;;;;;;;6.47;3.92;;;12.90;99.90;;;;;;5073318;28;20113;-68
2023/10/28 10:42:14;;;;;;;7.20;4.07;;;12.90;99.90;;;;;;5070670;28;20078;-67
2023/10/28 10:44:41;;;;;;;7.57;3.45;;;12.70;99.90;;;;;;5073077;28;20036;-68
2023/10/28 10:47:09;;;;;;;7.30;3.33;;;12.70;99.90;;;;;;5060262;28;20067;-68
2023/10/28 10:49:40;;;;;;;6.43;3.50;;;12.80;99.90;;;;;;5053947;28;20463;-67
2023/10/28 10:52:08;;;;;;;6.45;3.10;;;12.60;99.90;;;;;;5054645;28;20071;-68
2023/10/28 10:54:38;;;;;;;6.55;3.15;;;12.60;99.90;;;;;;5070762;28;20303;-67
2023/10/28 10:57:06;;;;;;;6.40;3.38;;;12.80;99.90;;;;;;5065171;28;20475;-68
2023/10/28 10:59:34;;;;;;;5.75;3.40;;;12.70;99.90;;;;;;5072485;28;20055;-68
2023/10/28 11:02:01;;;;;;;6.78;3.50;;;12.70;99.90;;;;;;5052844;28;20044;-68
2023/10/28 11:04:34;;;;;;;5.82;2.92;;;12.70;99.90;;;;;;5053978;28;20114;-67
2023/10/28 11:07:02;;;;;;;5.72;3.00;;;12.80;99.90;;;;;;5072792;28;20059;-68
2023/10/28 11:09:29;;;;;;;6.45;3.63;;;12.80;99.90;;;;;;5072802;28;20052;-69
2023/10/28 11:11:55;;;;;;;6.00;3.35;;;12.80;99.90;;;;;;5069904;28;20727;-68
2023/10/28 11:14:23;;;;;;;5.38;3.28;;;12.80;99.90;;;;;;5054299;28;20071;-69
2023/10/28 11:16:50;;;;;;;5.63;3.17;;;12.80;99.90;;;;;;5037625;28;20465;-69
2023/10/28 11:19:18;;;;;;;6.22;2.75;;;12.90;99.90;;;;;;5053653;28;20045;-69
2023/10/28 11:21:45;;;;;;;5.07;3.15;;;13.00;99.90;;;;;;5053769;28;20060;-68
2023/10/28 11:24:15;;;;;;;6.97;3.20;;;13.00;99.90;;;;;;5054107;28;20121;-70
2023/10/28 11:26:46;;;;;;;6.45;4.18;;;13.10;99.90;;;;;;5045390;28;20414;-69
2023/10/28 11:29:15;;;;;;;4.85;2.60;;;13.20;99.90;;;;;;5073709;28;20044;-69
2023/10/28 11:31:41;;;;;;;6.57;2.83;;;13.20;99.90;;;;;;5055871;28;20048;-69
2023/10/28 11:34:08;;;;;;;5.22;2.95;;;13.30;99.90;;;;;;5072076;28;20472;-69
2023/10/28 11:36:36;;;;;;;6.75;3.03;;;13.30;99.90;;;;;;5064746;28;20052;-69
2023/10/28 11:39:08;;;;;;;5.18;3.30;;;13.40;99.90;;;;;;5053336;28;20432;-69
2023/10/28 11:41:34;;;;;;;4.68;2.75;;;13.40;99.90;;;;;;5053406;28;20048;-68
2023/10/28 11:44:01;;;;;;;7.13;3.67;;;13.40;99.90;;;;;;5067900;28;20048;-69
2023/10/28 11:46:27;;;;;;;7.20;2.97;;;13.40;99.90;;;;;;5022518;28;20057;-70
2023/10/28 11:48:55;;;;;;;6.03;2.70;;;13.40;99.90;;;;;;5053107;28;20049;-70
2023/10/28 11:51:23;;;;;;;5.50;3.33;;;13.40;99.90;;;;;;5052850;28;20388;-69
2023/10/28 11:53:49;;;;;;;6.45;3.03;;;13.50;99.90;;;;;;5053251;28;20392;-69
2023/10/28 11:56:21;;;;;;;6.85;2.90;;;13.50;99.90;;;;;;5030567;28;20052;-70
2023/10/28 11:58:50;;;;;;;5.70;2.60;;;13.50;99.90;;;;;;5032843;28;20049;-70
2023/10/28 12:01:17;;;;;;;5.97;2.60;;;13.50;99.90;;;;;;5032924;28;20048;-70
2023/10/28 12:03:45;;;;;;;5.47;2.65;;;13.60;99.90;;;;;;5033214;28;20491;-69
2023/10/28 12:06:11;;;;;;;5.63;2.80;;;13.70;99.90;;;;;;5036664;28;20581;-68
2023/10/28 12:08:39;;;;;;;5.18;3.10;;;13.70;99.90;;;;;;5052721;28;20060;-70
2023/10/28 12:11:05;;;;;;;7.38;2.60;;;13.80;99.90;;;;;;5052496;28;20380;-70
2023/10/28 12:13:32;;;;;;;5.35;2.60;;;13.80;99.90;;;;;;5052477;28;20102;-69
2023/10/28 12:15:59;;;;;;;6.15;3.05;;;13.80;99.90;;;;;;5049543;28;20060;-69
2023/10/28 12:18:25;;;;;;;5.35;2.63;;;13.90;99.90;;;;;;5032888;28;20119;-69
2023/10/28 12:20:51;;;;;;;6.50;2.72;;;13.90;99.90;;;;;;5016384;28;20048;-69
2023/10/28 12:23:17;;;;;;;7.57;2.70;;;14.00;99.90;;;;;;5032464;28;20468;-69
2023/10/28 12:25:44;;;;;;;4.93;2.58;;;14.00;99.90;;;;;;5032425;28;20049;-70
2023/10/28 12:28:10;;;;;;;7.32;2.85;;;14.00;99.90;;;;;;5052481;28;20048;-69
2023/10/28 12:30:37;;;;;;;6.30;3.28;;;14.00;99.90;;;;;;5035778;28;20052;-70
2023/10/28 12:33:04;;;;;;;5.07;2.60;;;14.00;99.90;;;;;;5052513;28;20048;-70
2023/10/28 12:35:30;;;;;;;6.93;2.50;;;14.10;99.90;;;;;;5052359;28;20064;-69
2023/10/28 12:37:56;;;;;;;5.78;2.75;;;14.10;99.90;;;;;;5050603;28;20049;-70
2023/10/28 12:40:23;;;;;;;5.03;2.80;;;14.10;99.90;;;;;;5015926;28;20056;-69
2023/10/28 12:42:50;;;;;;;6.80;3.13;;;14.10;99.90;;;;;;5032256;28;20053;-69
2023/10/28 12:45:16;;;;;;;7.30;2.97;;;14.10;99.90;;;;;;5044616;28;20110;-69
2023/10/28 12:47:42;;;;;;;5.50;2.50;;;14.10;99.90;;;;;;5067980;28;20100;-69